Time;durP1;ratioP1;P1;durP2;ratioP2;P2;SDS_P1;SDS_P2;PMS_P1;PMS_P2;Temp;Humidity;BMP_temperature;BMP_pressure;BME280_temperature;BME280_humidity;BME280_pressure;Samples;Min_cycle;Max_cycle;Signal;HPM_P1;HPM_P2
2022/09/05 00:00:54;;;;;;;4.60;2.60;;;22.50;77.80;;;22.86;48.72;99078.47;5040818;27;123882;-75
2022/09/05 00:03:33;;;;;;;5.73;2.63;;;22.50;78.60;;;22.84;48.70;99080.84;5015606;28;123585;-75
2022/09/05 00:06:05;;;;;;;2.73;2.30;;;22.50;78.20;;;22.84;48.91;99080.06;5003460;28;113989;-74
2022/09/05 00:08:51;;;;;;;4.60;2.60;;;22.40;78.20;;;22.83;49.03;99079.22;5020717;28;112289;-74
2022/09/05 00:11:33;;;;;;;4.30;2.80;;;22.40;78.40;;;22.82;48.81;99083.25;5014445;28;124031;-75
2022/09/05 00:14:33;;;;;;;3.90;2.30;;;22.40;78.60;;;22.79;48.63;99078.38;5022395;28;122929;-74
2022/09/05 00:17:43;;;;;;;2.27;2.00;;;22.40;78.70;;;22.76;48.92;99078.38;5023402;28;114209;-75
2022/09/05 00:20:55;;;;;;;3.33;2.27;;;22.40;78.80;;;22.72;49.04;99073.47;5028854;27;113794;-75
2022/09/05 00:23:42;;;;;;;3.13;2.43;;;22.40;78.90;;;22.72;49.03;99067.84;5025069;28;123872;-75
2022/09/05 00:26:17;;;;;;;3.60;2.60;;;22.30;79.00;;;22.70;48.90;99069.44;5025937;28;122645;-76
2022/09/05 00:29:44;;;;;;;3.60;2.73;;;22.30;79.00;;;22.66;48.85;99062.97;5029344;28;114270;-76
2022/09/05 00:32:48;;;;;;;3.50;2.60;;;22.30;79.20;;;22.65;49.07;99064.19;5024104;28;113775;-76
2022/09/05 00:35:36;;;;;;;2.97;2.60;;;22.30;79.30;;;22.61;49.22;99080.22;5021128;28;126286;-75
2022/09/05 00:38:21;;;;;;;3.47;2.23;;;22.20;79.30;;;22.59;49.37;99072.13;5024558;28;124096;-76
2022/09/05 00:41:03;;;;;;;3.90;2.27;;;22.20;79.40;;;22.57;49.28;99065.28;5016998;28;115115;-76
2022/09/05 00:43:41;;;;;;;3.67;2.47;;;22.20;79.60;;;22.55;49.32;99053.59;5018268;28;113594;-76
2022/09/05 00:46:26;;;;;;;3.40;2.47;;;22.20;79.70;;;22.53;49.19;99058.81;5009021;28;124119;-77
2022/09/05 00:49:26;;;;;;;2.80;2.20;;;22.10;79.80;;;22.50;49.45;99074.47;5023253;28;123488;-76
2022/09/05 00:51:57;;;;;;;3.27;2.03;;;22.10;79.90;;;22.49;49.62;99070.84;5018377;27;114622;-76
2022/09/05 00:54:48;;;;;;;2.70;2.10;;;22.10;80.00;;;22.47;49.76;99073.22;5018503;28;114789;-76
2022/09/05 00:57:57;;;;;;;2.67;2.37;;;22.10;80.30;;;22.42;49.53;99070.75;5023700;28;124176;-76
2022/09/05 01:00:45;;;;;;;3.30;2.53;;;22.10;80.30;;;22.42;49.36;99079.22;5026350;27;123915;-75
2022/09/05 01:03:20;;;;;;;4.37;2.80;;;22.10;80.40;;;22.41;49.36;99079.63;5015067;28;114266;-76
2022/09/05 01:06:30;;;;;;;3.80;1.90;;;22.00;80.40;;;22.38;49.58;99080.34;5026728;28;113904;-77
2022/09/05 01:09:27;;;;;;;3.60;2.30;;;22.00;80.50;;;22.34;49.51;99080.31;5013169;28;123715;-75
2022/09/05 01:12:10;;;;;;;2.57;2.00;;;22.00;80.60;;;22.32;50.01;99079.09;5017347;28;124051;-77
2022/09/05 01:15:07;;;;;;;4.97;2.10;;;21.90;80.70;;;22.29;50.00;99083.47;5017143;28;114143;-76
2022/09/05 01:18:09;;;;;;;3.20;2.13;;;21.90;80.80;;;22.24;49.89;99072.56;5021516;28;114632;-75
2022/09/05 01:20:53;;;;;;;3.40;2.23;;;21.90;80.90;;;22.22;49.70;99074.97;5013814;27;124417;-76
2022/09/05 01:24:14;;;;;;;3.40;2.40;;;21.90;81.10;;;22.17;49.81;99075.28;5027458;28;122400;-75
2022/09/05 01:27:26;;;;;;;2.27;1.93;;;21.90;81.10;;;22.14;49.77;99064.75;4989562;28;114432;-75
2022/09/05 01:30:12;;;;;;;3.20;2.67;;;21.80;81.30;;;22.12;50.20;99062.34;5025294;28;114159;-76
2022/09/05 01:33:09;;;;;;;2.33;2.03;;;21.80;81.50;;;22.12;50.19;99055.91;5022957;27;123222;-75
2022/09/05 01:36:03;;;;;;;3.53;2.30;;;21.80;81.60;;;22.10;49.94;99066.75;5011690;28;123397;-77
2022/09/05 01:39:13;;;;;;;4.93;2.07;;;21.80;81.70;;;22.03;50.23;99062.66;5018947;27;114481;-76
2022/09/05 01:41:56;;;;;;;2.40;1.93;;;21.70;81.80;;;22.04;50.48;99064.25;5017057;28;114004;-76
2022/09/05 01:45:02;;;;;;;3.77;2.10;;;21.70;81.90;;;22.03;50.18;99036.50;5015932;28;124440;-75
2022/09/05 01:48:04;;;;;;;2.47;1.93;;;21.70;82.00;;;21.99;50.61;99053.34;5018482;27;124597;-76
2022/09/05 01:51:08;;;;;;;3.13;2.60;;;21.70;82.10;;;21.97;50.39;99060.53;5022454;28;114521;-76
2022/09/05 01:53:54;;;;;;;2.80;2.13;;;21.60;82.10;;;21.97;50.69;99054.91;5023273;27;114908;-77
2022/09/05 01:56:37;;;;;;;3.97;2.23;;;21.60;82.30;;;21.98;50.56;99048.13;5013681;28;124558;-77
2022/09/05 01:59:25;;;;;;;2.50;2.13;;;21.60;82.40;;;21.93;50.27;99054.88;5001808;27;122971;-77
2022/09/05 02:02:43;;;;;;;3.40;2.07;;;21.60;82.40;;;21.89;50.44;99059.63;5020562;28;114131;-77
2022/09/05 02:05:30;;;;;;;4.40;1.90;;;21.50;82.40;;;21.86;50.43;99053.97;5023977;28;114141;-76
2022/09/05 02:08:14;;;;;;;2.17;1.90;;;21.50;82.60;;;21.85;50.96;99061.63;5020180;28;124060;-75
2022/09/05 02:11:05;;;;;;;4.47;2.30;;;21.50;82.80;;;21.82;50.66;99059.56;5025065;28;123789;-77
2022/09/05 02:13:34;;;;;;;3.53;2.40;;;21.40;82.80;;;21.83;50.97;99061.19;5022008;28;114369;-76
2022/09/05 02:16:30;;;;;;;2.47;1.90;;;21.40;83.00;;;21.79;51.15;99057.53;5023346;27;113279;-76
2022/09/05 02:19:13;;;;;;;4.07;2.20;;;21.40;83.10;;;21.78;50.94;99053.06;5006163;28;124135;-76
2022/09/05 02:22:25;;;;;;;3.93;2.27;;;21.40;83.20;;;21.71;50.89;99045.38;5014631;28;123791;-76
2022/09/05 02:25:04;;;;;;;3.13;1.97;;;21.40;83.30;;;21.73;51.03;99044.97;5019772;28;114841;-79
2022/09/05 02:27:40;;;;;;;2.13;1.93;;;21.40;83.40;;;21.71;51.08;99048.19;5016309;28;112699;-76
2022/09/05 02:30:24;;;;;;;2.90;2.27;;;21.40;83.50;;;21.69;51.14;99049.75;5019289;28;124048;-76
2022/09/05 02:33:34;;;;;;;4.30;2.23;;;21.30;83.40;;;21.65;51.21;99034.81;5024623;27;124394;-76
2022/09/05 02:36:28;;;;;;;2.50;2.23;;;21.30;83.50;;;21.60;51.41;99039.59;5020539;28;113000;-79
2022/09/05 02:39:08;;;;;;;2.63;1.93;;;21.20;83.60;;;21.60;51.21;99035.94;5008923;27;113281;-77
2022/09/05 02:41:43;;;;;;;4.07;2.40;;;21.20;83.70;;;21.57;51.43;99031.91;4994909;28;123138;-76
2022/09/05 02:44:39;;;;;;;2.67;2.00;;;21.20;83.90;;;21.56;51.53;99035.91;5005841;28;124005;-80
2022/09/05 02:47:17;;;;;;;2.77;2.33;;;21.20;83.90;;;21.53;51.39;99044.31;5002727;28;114587;-79
2022/09/05 02:50:13;;;;;;;3.43;2.50;;;21.20;84.00;;;21.46;51.47;99036.56;5016861;28;114444;-77
2022/09/05 02:52:42;;;;;;;2.23;1.93;;;21.10;84.10;;;21.44;51.56;99041.78;5011978;28;124706;-76
2022/09/05 02:55:25;;;;;;;1.80;1.60;;;21.10;84.30;;;21.44;51.66;99050.22;5020689;28;123693;-81
2022/09/05 02:58:27;;;;;;;2.37;2.10;;;21.10;84.50;;;21.41;51.65;99045.31;5001378;28;113794;-76
2022/09/05 03:01:11;;;;;;;3.63;2.40;;;21.10;84.70;;;21.38;52.04;99046.09;4998400;28;113179;-79
2022/09/05 03:04:11;;;;;;;4.40;2.27;;;21.00;84.80;;;21.33;51.95;99044.41;5017166;28;124536;-76
2022/09/05 03:07:08;;;;;;;2.77;2.20;;;21.00;85.00;;;21.28;52.14;99035.44;5012650;28;123756;-77
2022/09/05 03:10:07;;;;;;;2.97;2.40;;;21.00;85.10;;;21.25;52.36;99031.44;5011521;28;114272;-77
2022/09/05 03:13:31;;;;;;;3.83;2.30;;;20.90;85.30;;;21.24;52.04;99034.59;5013338;28;115298;-77
2022/09/05 03:16:44;;;;;;;3.00;2.53;;;20.90;85.50;;;21.22;52.56;99034.97;5020802;28;123410;-78
2022/09/05 03:19:39;;;;;;;2.33;2.10;;;20.90;85.70;;;21.21;52.69;99035.38;5033102;28;124070;-77
2022/09/05 03:22:23;;;;;;;2.47;2.10;;;20.80;85.80;;;21.22;52.82;99026.53;5025205;28;114558;-77
2022/09/05 03:25:17;;;;;;;3.30;2.20;;;21.60;86.70;;;21.20;52.48;99023.31;5016438;28;113719;-78
2022/09/05 03:28:27;;;;;;;2.33;2.07;;;20.80;86.00;;;21.17;52.62;99036.13;5009742;28;123886;-79
2022/09/05 03:31:20;;;;;;;4.23;2.33;;;20.80;86.30;;;21.17;52.62;99038.94;5013531;28;123924;-76
2022/09/05 03:34:39;;;;;;;5.00;2.53;;;20.80;86.30;;;21.15;52.79;99035.69;5015787;28;114222;-77
2022/09/05 03:37:38;;;;;;;6.23;2.67;;;20.80;86.80;;;21.15;53.11;99044.13;5022515;28;114042;-76
2022/09/05 03:40:51;;;;;;;3.50;2.33;;;20.80;86.50;;;21.12;52.57;99041.25;5023380;27;124032;-76
2022/09/05 03:44:02;;;;;;;3.50;2.20;;;20.80;86.50;;;21.12;52.60;99039.25;5015358;28;123719;-78
2022/09/05 03:47:02;;;;;;;3.00;2.37;;;20.70;86.50;;;21.10;53.23;99047.25;5015466;27;115466;-77
2022/09/05 03:49:41;;;;;;;3.60;3.10;;;20.70;86.60;;;21.11;52.90;99043.22;5019833;28;115745;-79
2022/09/05 03:52:35;;;;;;;2.90;2.20;;;20.70;86.60;;;21.10;52.76;99047.25;5027717;27;123616;-81
2022/09/05 03:55:22;;;;;;;2.83;2.10;;;20.70;86.70;;;21.09;53.02;99045.63;5027476;27;123845;-78
2022/09/05 03:58:16;;;;;;;2.37;2.10;;;20.70;86.70;;;21.07;52.90;99048.00;5016159;28;114738;-76
2022/09/05 04:01:06;;;;;;;14.23;2.50;;;20.70;86.70;;;21.07;52.63;99047.19;5010519;28;114528;-79
2022/09/05 04:03:44;;;;;;;3.53;2.50;;;20.70;86.70;;;21.08;52.79;99049.63;5012163;28;125081;-77
2022/09/05 04:06:29;;;;;;;2.93;2.40;;;20.70;86.80;;;21.07;52.59;99050.81;5009954;28;123840;-77
2022/09/05 04:09:26;;;;;;;2.73;2.30;;;20.70;87.50;;;21.05;52.99;99036.31;5020251;28;114574;-76
2022/09/05 04:12:21;;;;;;;3.00;2.43;;;20.70;86.80;;;21.04;52.79;99047.94;5026806;27;113524;-78
2022/09/05 04:15:02;;;;;;;2.70;2.30;;;20.60;86.80;;;21.04;52.81;99042.34;5008201;28;124005;-79
2022/09/05 04:17:39;;;;;;;4.90;2.50;;;20.60;86.80;;;21.02;53.14;99045.50;5023857;28;123885;-76
2022/09/05 04:20:39;;;;;;;2.43;1.90;;;20.60;86.80;;;20.99;52.97;99043.47;5028688;27;113370;-77
2022/09/05 04:23:34;;;;;;;2.00;1.80;;;20.60;86.90;;;20.95;53.27;99043.41;5024562;28;113701;-76
2022/09/05 04:26:41;;;;;;;3.97;2.77;;;20.60;87.00;;;20.96;53.13;99044.22;5028030;27;123604;-76
2022/09/05 04:29:38;;;;;;;5.97;2.47;;;20.60;87.00;;;20.92;52.80;99044.13;5008870;28;122519;-77
2022/09/05 04:32:22;;;;;;;3.10;2.23;;;20.60;87.10;;;20.91;53.18;99045.34;5020070;28;114402;-76
2022/09/05 04:35:24;;;;;;;2.73;2.17;;;20.50;86.90;;;20.87;53.01;99050.06;5017987;28;114012;-76
2022/09/05 04:38:15;;;;;;;2.47;2.27;;;20.50;87.00;;;20.86;52.87;99054.06;5010305;28;123983;-76
2022/09/05 04:40:59;;;;;;;2.80;2.23;;;20.50;87.10;;;20.85;53.09;99057.28;5004546;28;123354;-76
2022/09/05 04:43:31;;;;;;;2.80;2.17;;;20.50;87.20;;;20.86;53.23;99053.25;5014012;27;115479;-77
2022/09/05 04:46:16;;;;;;;2.53;2.33;;;20.40;87.30;;;20.80;53.50;99054.78;5021657;28;113927;-76
2022/09/05 04:49:28;;;;;;;4.10;2.53;;;20.40;87.40;;;20.72;53.04;99057.44;5020269;27;124698;-76
2022/09/05 04:52:13;;;;;;;3.40;2.30;;;20.40;87.50;;;20.72;53.59;99057.44;5020627;28;123542;-76
2022/09/05 04:54:53;;;;;;;3.20;2.23;;;20.40;87.70;;;20.72;53.79;99065.88;5025162;28;114267;-76
2022/09/05 04:57:35;;;;;;;4.60;2.57;;;20.30;87.70;;;20.73;53.71;99069.47;5007842;28;113026;-77
2022/09/05 05:00:31;;;;;;;4.87;2.80;;;20.30;87.90;;;20.73;53.84;99067.47;5016038;28;124311;-76
2022/09/05 05:03:03;;;;;;;3.97;2.70;;;20.30;88.10;;;20.71;53.69;99075.50;4991855;28;123953;-76
2022/09/05 05:06:03;;;;;;;3.50;2.60;;;20.30;88.30;;;20.67;53.82;99069.00;5022135;28;114408;-76
2022/09/05 05:08:48;;;;;;;4.57;2.30;;;20.30;88.40;;;20.69;54.07;99074.25;5000358;28;115455;-76
2022/09/05 05:11:43;;;;;;;4.50;2.70;;;20.30;88.50;;;20.69;54.05;99080.66;5010544;28;124188;-76
2022/09/05 05:14:23;;;;;;;6.43;3.80;;;20.30;88.60;;;20.70;53.84;99087.09;5016236;28;123984;-76
2022/09/05 05:17:12;;;;;;;5.70;3.30;;;20.30;88.70;;;20.72;53.91;99082.72;5020216;28;113988;-76
2022/09/05 05:19:44;;;;;;;4.00;3.27;;;20.30;88.70;;;20.72;54.33;99079.09;5013158;28;114297;-77
2022/09/05 05:22:17;;;;;;;4.37;3.03;;;20.30;88.80;;;20.70;54.25;99082.28;5018265;28;124212;-76
2022/09/05 05:24:56;;;;;;;3.00;2.60;;;20.30;88.90;;;20.69;54.23;99089.09;5028049;28;124840;-77
2022/09/05 05:28:08;;;;;;;3.23;2.60;;;20.30;89.00;;;20.67;54.14;99080.22;5010884;28;114431;-76
2022/09/05 05:30:35;;;;;;;3.10;2.40;;;20.30;89.30;;;20.63;54.27;99090.59;5015922;28;113958;-78
2022/09/05 05:33:33;;;;;;;7.80;2.93;;;20.20;89.40;;;20.59;54.38;99095.31;5016949;28;123636;-75
2022/09/05 05:36:03;;;;;;;4.20;2.90;;;20.20;89.60;;;20.63;54.63;99096.22;5016075;28;124301;-77
2022/09/05 05:38:44;;;;;;;3.63;2.70;;;20.20;89.70;;;20.66;54.43;99092.66;5018006;27;115355;-76
2022/09/05 05:41:44;;;;;;;7.80;3.83;;;20.20;89.80;;;20.69;54.54;99103.13;5017396;28;114874;-77
2022/09/05 05:44:50;;;;;;;3.20;2.70;;;20.20;89.80;;;20.69;54.73;99100.31;5029088;27;124018;-76
2022/09/05 05:47:28;;;;;;;8.00;4.37;;;20.30;89.80;;;20.73;54.69;99101.19;5017148;27;123931;-77
2022/09/05 05:50:24;;;;;;;8.23;3.10;;;20.30;90.20;;;20.76;54.37;99105.25;5020933;28;114208;-76
2022/09/05 05:53:18;;;;;;;6.60;3.20;;;20.30;89.90;;;20.80;54.38;99108.13;5022865;28;114116;-76
2022/09/05 05:56:07;;;;;;;5.67;3.30;;;20.30;90.20;;;20.82;54.60;99109.38;5022606;28;124160;-76
2022/09/05 05:59:00;;;;;;;4.40;2.70;;;20.30;90.00;;;20.83;54.20;99110.19;5010466;28;125008;-76
2022/09/05 06:02:05;;;;;;;4.73;3.30;;;20.40;90.00;;;20.85;54.26;99107.81;5016835;27;113739;-76
2022/09/05 06:05:19;;;;;;;7.23;3.63;;;20.40;90.00;;;20.87;54.63;99111.84;5009794;28;114236;-77
2022/09/05 06:08:43;;;;;;;6.10;3.07;;;20.40;90.10;;;20.90;54.38;99108.31;5025295;27;124005;-76
2022/09/05 06:11:33;;;;;;;6.30;3.13;;;20.40;90.10;;;20.95;54.24;99110.00;5020677;28;124776;-76
2022/09/05 06:15:08;;;;;;;8.23;4.03;;;20.40;90.10;;;21.02;54.37;99117.75;5023368;28;114550;-75
2022/09/05 06:17:43;;;;;;;7.87;3.00;;;20.50;90.10;;;21.13;54.37;99116.72;4977139;28;113792;-76
2022/09/05 06:20:40;;;;;;;4.50;2.97;;;20.60;90.10;;;21.21;54.17;99120.47;4977175;28;124192;-77
2022/09/05 06:23:51;;;;;;;4.13;2.80;;;20.60;90.10;;;21.25;53.58;99110.13;5016099;28;123104;-78
2022/09/05 06:26:43;;;;;;;7.60;3.57;;;20.70;89.90;;;21.28;53.41;99117.78;5020802;28;113630;-76
2022/09/05 06:29:12;;;;;;;5.17;3.47;;;20.70;90.10;;;21.34;53.63;99115.47;5013494;28;113140;-77
2022/09/05 06:31:57;;;;;;;11.57;4.00;;;20.80;89.60;;;21.43;53.42;99116.03;5022681;28;124085;-77
2022/09/05 06:34:44;;;;;;;4.27;2.83;;;20.80;89.50;;;21.52;53.52;99115.75;5021102;28;123959;-78
2022/09/05 06:38:11;;;;;;;4.33;2.97;;;20.90;90.00;;;21.59;53.13;99113.06;4997328;28;115508;-77
2022/09/05 06:40:58;;;;;;;9.23;3.20;;;21.00;89.30;;;21.69;52.65;99123.69;5024433;28;114545;-75
2022/09/05 06:44:02;;;;;;;5.23;3.00;;;21.00;89.20;;;21.77;52.40;99116.97;5011529;28;124058;-77
2022/09/05 06:46:35;;;;;;;5.23;3.60;;;21.10;88.90;;;21.91;52.61;99119.16;5033755;27;124193;-76
2022/09/05 06:49:24;;;;;;;7.33;3.37;;;21.20;88.90;;;22.02;52.07;99114.47;5019240;28;113492;-77
2022/09/05 06:52:31;;;;;;;5.97;3.10;;;21.30;88.70;;;22.14;51.79;99115.44;5017927;28;114625;-77
2022/09/05 06:55:31;;;;;;;6.90;3.40;;;21.40;88.40;;;22.18;51.39;99121.94;5022874;27;123817;-75
2022/09/05 06:58:35;;;;;;;7.33;3.90;;;21.50;88.00;;;22.17;51.17;99123.13;5022967;28;124143;-75
2022/09/05 07:01:03;;;;;;;7.03;4.40;;;21.50;87.50;;;22.17;51.08;99121.13;5023455;28;114014;-76
2022/09/05 07:04:24;;;;;;;4.60;3.30;;;22.20;88.20;;;22.20;51.50;99125.22;5033801;28;114102;-80
2022/09/05 07:07:17;;;;;;;13.47;4.00;;;21.60;87.50;;;22.21;51.41;99127.63;5026502;28;123070;-76
2022/09/05 07:09:52;;;;;;;5.50;3.47;;;21.60;87.30;;;22.27;51.47;99125.28;5008373;27;124995;-76
2022/09/05 07:12:28;;;;;;;3.93;2.73;;;21.60;87.30;;;22.35;51.44;99123.34;4993157;28;97063;-76
2022/09/05 07:15:03;;;;;;;4.10;2.97;;;21.70;87.30;;;22.41;50.95;99125.47;5047265;27;113078;-77
2022/09/05 07:18:15;;;;;;;3.90;3.00;;;21.80;87.10;;;22.45;51.25;99128.31;5011437;28;124044;-77
2022/09/05 07:20:53;;;;;;;8.90;3.77;;;21.90;87.00;;;22.49;50.86;99115.91;5009513;28;123842;-75
2022/09/05 07:23:31;;;;;;;4.00;3.03;;;21.80;87.00;;;22.54;51.17;99119.56;5026360;28;115962;-75
2022/09/05 07:25:58;;;;;;;7.20;3.47;;;21.90;87.10;;;22.62;50.95;99118.44;5023769;28;114448;-75
2022/09/05 07:28:26;;;;;;;5.93;3.17;;;21.90;87.10;;;22.68;50.87;99117.72;5012450;28;124681;-75
2022/09/05 07:31:02;;;;;;;6.00;3.17;;;22.00;87.10;;;22.79;50.91;99119.84;5019697;28;123887;-75
2022/09/05 07:33:30;;;;;;;4.10;3.03;;;22.00;87.00;;;22.92;50.61;99122.00;5019220;28;115077;-75
2022/09/05 07:36:11;;;;;;;5.97;3.40;;;22.20;87.00;;;23.01;50.24;99121.69;5013181;28;114044;-77
2022/09/05 07:38:38;;;;;;;3.67;2.80;;;22.30;87.40;;;23.08;50.39;99118.94;5018419;27;123955;-75
2022/09/05 07:41:14;;;;;;;6.23;3.13;;;22.30;87.00;;;23.17;49.94;99112.19;5027484;27;124039;-75
2022/09/05 07:43:45;;;;;;;10.20;3.10;;;22.40;86.60;;;23.20;50.11;99106.56;5020022;28;114281;-78
2022/09/05 07:46:23;;;;;;;10.90;2.90;;;22.40;86.50;;;23.30;49.99;99111.47;5012126;28;113673;-77
2022/09/05 07:49:11;;;;;;;10.00;3.00;;;22.50;86.50;;;23.37;49.64;99108.72;5009044;28;124097;-76
2022/09/05 07:51:53;;;;;;;4.20;2.57;;;22.60;86.20;;;23.47;49.75;99117.66;5008212;28;123357;-77
2022/09/05 07:54:30;;;;;;;10.20;3.00;;;22.70;86.20;;;23.61;49.22;99117.72;5020813;27;114167;-77
2022/09/05 07:57:04;;;;;;;3.87;2.60;;;22.80;85.90;;;23.74;49.15;99104.97;5005609;28;114056;-78
2022/09/05 07:59:34;;;;;;;6.60;2.57;;;22.90;85.60;;;23.86;48.91;99117.94;5010485;28;124519;-77
2022/09/05 08:02:02;;;;;;;2.53;2.27;;;23.00;85.40;;;23.97;48.61;99113.16;5009167;28;124640;-76
2022/09/05 08:04:40;;;;;;;4.27;2.53;;;23.10;85.20;;;24.11;48.46;99112.41;5024848;28;114474;-81
2022/09/05 08:07:30;;;;;;;4.03;2.90;;;23.30;84.90;;;24.19;47.74;99108.41;5024202;28;113617;-78
2022/09/05 08:10:11;;;;;;;4.77;2.60;;;23.40;84.90;;;24.32;47.58;99110.91;5005633;28;123435;-78
2022/09/05 08:12:54;;;;;;;8.70;3.40;;;23.50;84.00;;;24.37;47.45;99104.88;5001196;28;124257;-76
2022/09/05 08:15:26;;;;;;;4.17;2.93;;;23.60;83.50;;;24.39;47.23;99103.25;5014445;28;114220;-76
2022/09/05 08:18:37;;;;;;;4.67;2.50;;;23.60;83.30;;;24.45;47.42;99106.53;5017081;28;113936;-80
2022/09/05 08:21:13;;;;;;;6.30;2.77;;;23.70;83.20;;;24.60;47.43;99102.53;5009601;28;123843;-78
2022/09/05 08:24:11;;;;;;;4.60;2.80;;;23.80;83.30;;;24.73;47.11;99091.66;5001937;28;123514;-77
2022/09/05 08:27:05;;;;;;;5.90;3.10;;;23.90;83.10;;;24.85;47.07;99093.28;5006916;28;115606;-78
2022/09/05 08:30:00;;;;;;;5.00;3.13;;;24.10;82.70;;;24.96;46.90;99099.78;5015258;28;114555;-76
2022/09/05 08:32:58;;;;;;;5.67;2.80;;;24.20;82.40;;;25.04;46.60;99098.59;5015055;28;122500;-76
2022/09/05 08:35:39;;;;;;;3.90;2.50;;;24.30;82.30;;;25.15;46.07;99095.78;5005696;28;123593;-77
2022/09/05 08:38:07;;;;;;;4.23;2.73;;;24.40;82.20;;;25.23;46.31;99090.94;5017953;28;114257;-76
2022/09/05 08:40:47;;;;;;;6.13;2.80;;;24.50;82.00;;;25.29;45.92;99092.94;5009662;28;113678;-82
2022/09/05 08:43:28;;;;;;;5.00;2.70;;;24.50;82.20;;;25.33;45.76;99078.78;5016324;28;124223;-77
2022/09/05 08:46:12;;;;;;;4.70;2.80;;;24.60;81.30;;;25.36;46.21;99089.28;5000679;28;123017;-79
2022/09/05 08:48:48;;;;;;;7.03;3.20;;;24.70;81.20;;;25.44;45.69;99087.28;5017180;27;114718;-77
2022/09/05 08:52:05;;;;;;;9.97;3.87;;;24.70;81.00;;;25.42;45.85;99090.53;5015782;28;114024;-77
2022/09/05 08:54:59;;;;;;;8.33;3.13;;;24.80;80.90;;;25.47;45.74;99090.13;4951850;28;122802;-79
2022/09/05 08:58:07;;;;;;;4.90;3.10;;;24.80;80.70;;;25.50;45.70;99089.31;5015695;28;123738;-78
2022/09/05 09:00:44;;;;;;;5.03;3.03;;;24.90;80.60;;;25.61;45.36;99088.47;5010956;28;113529;-80
2022/09/05 09:03:21;;;;;;;8.37;3.30;;;24.90;80.50;;;25.63;45.62;99092.53;5022386;28;114695;-80
2022/09/05 09:05:53;;;;;;;4.97;3.07;;;24.90;80.40;;;25.67;45.19;99089.69;5007786;28;123900;-79
2022/09/05 09:08:54;;;;;;;5.87;3.10;;;25.00;80.10;;;25.64;45.20;99084.84;5007789;28;123619;-80
2022/09/05 09:11:39;;;;;;;5.97;3.20;;;25.00;80.00;;;25.66;45.32;99088.06;5026148;28;114881;-78
2022/09/05 09:14:39;;;;;;;5.07;3.33;;;25.00;79.90;;;25.67;45.49;99087.66;5026610;27;112121;-77
2022/09/05 09:17:42;;;;;;;7.93;2.83;;;25.10;79.80;;;25.68;45.28;99083.59;5010132;28;124151;-82
2022/09/05 09:20:25;;;;;;;4.33;2.90;;;25.10;79.30;;;25.75;44.68;99082.78;4990878;27;123786;-81
2022/09/05 09:23:00;;;;;;;7.83;3.50;;;25.10;79.00;;;25.82;44.75;99088.44;5010737;28;114995;-80
2022/09/05 09:26:10;;;;;;;5.90;2.20;;;25.20;79.00;;;25.87;44.58;99079.56;5028153;27;114109;-77
2022/09/05 09:29:02;;;;;;;6.43;2.23;;;25.30;78.70;;;25.96;44.55;99081.94;5023992;27;123272;-78
2022/09/05 09:32:05;;;;;;;4.73;2.60;;;25.30;78.70;;;26.00;44.70;99077.88;5010108;28;124328;-79
2022/09/05 09:34:37;;;;;;;4.97;2.37;;;25.40;78.20;;;26.06;44.41;99077.44;5002702;28;114232;-76
2022/09/05 09:37:13;;;;;;;4.53;2.00;;;25.50;78.10;;;26.11;44.33;99065.69;5021955;27;114840;-80
2022/09/05 09:40:17;;;;;;;3.73;2.43;;;25.50;77.90;;;26.14;44.07;99064.88;5020935;27;123294;-79
2022/09/05 09:43:26;;;;;;;2.33;1.87;;;25.60;77.80;;;26.22;44.41;99060.78;5023074;28;123628;-76
2022/09/05 09:46:43;;;;;;;8.63;2.60;;;25.60;77.80;;;26.26;44.42;99066.44;5000070;28;113699;-78
2022/09/05 09:49:47;;;;;;;5.10;2.37;;;25.70;77.60;;;26.31;43.96;99058.31;5016670;28;113230;-77
2022/09/05 09:52:59;;;;;;;3.67;2.33;;;25.80;77.30;;;26.35;43.89;99058.31;5018314;28;124619;-79
2022/09/05 09:56:05;;;;;;;9.27;3.47;;;25.80;77.30;;;26.39;43.86;99054.25;5005663;28;124322;-76
2022/09/05 09:58:45;;;;;;;6.33;2.77;;;25.90;76.90;;;26.42;43.56;99047.75;5021532;28;114986;-77
2022/09/05 10:01:37;;;;;;;3.33;2.50;;;25.90;76.90;;;26.45;43.97;99048.94;5015993;28;113997;-74
2022/09/05 10:04:39;;;;;;;4.13;2.40;;;25.90;76.70;;;26.52;43.79;99051.78;5019507;28;125044;-78
2022/09/05 10:07:34;;;;;;;3.73;2.80;;;26.00;76.80;;;26.56;43.28;99046.06;5006335;27;123640;-77
2022/09/05 10:10:33;;;;;;;3.83;2.40;;;26.00;75.90;;;26.61;43.20;99048.47;5006165;28;113575;-78
2022/09/05 10:13:27;;;;;;;3.17;2.27;;;26.10;76.10;;;26.66;43.39;99050.88;5017329;28;113317;-76
2022/09/05 10:16:27;;;;;;;4.57;2.30;;;26.20;75.90;;;26.73;43.14;99045.13;5015368;28;124574;-76
2022/09/05 10:19:43;;;;;;;3.70;2.63;;;26.20;75.90;;;26.79;43.45;99052.00;5012851;28;124692;-79
2022/09/05 10:22:42;;;;;;;3.80;2.70;;;26.30;75.70;;;26.90;43.19;99043.41;5022198;27;114245;-78
2022/09/05 10:25:47;;;;;;;2.93;2.63;;;26.30;75.50;;;26.96;42.95;99041.72;5022302;27;114637;-81
2022/09/05 10:28:44;;;;;;;3.73;2.73;;;26.40;75.00;;;27.04;42.49;99037.59;5023427;27;123475;-79
2022/09/05 10:31:18;;;;;;;2.87;2.47;;;26.50;74.80;;;27.14;42.01;99043.63;5016663;28;124215;-79
2022/09/05 10:34:29;;;;;;;2.27;2.00;;;26.60;74.30;;;27.22;42.32;99031.81;5038881;27;113508;-77
2022/09/05 10:37:09;;;;;;;3.73;2.87;;;26.70;73.90;;;27.34;42.01;99032.50;5017424;28;114875;-78
2022/09/05 10:39:42;;;;;;;3.37;2.77;;;26.70;73.90;;;27.43;41.73;99019.44;5015452;27;124103;-77
2022/09/05 10:42:38;;;;;;;4.77;2.70;;;26.80;73.60;;;27.50;41.92;99012.88;5023671;28;123904;-76
2022/09/05 10:45:15;;;;;;;5.40;2.60;;;27.00;73.50;;;27.61;41.25;99009.91;5009479;28;113835;-78
2022/09/05 10:48:18;;;;;;;4.63;2.87;;;27.00;73.10;;;27.72;41.31;99011.41;5009036;28;113047;-77
2022/09/05 10:51:05;;;;;;;3.10;2.57;;;27.10;73.00;;;27.84;41.37;98998.72;5023929;28;123924;-76
2022/09/05 10:54:10;;;;;;;3.77;2.47;;;27.20;73.20;;;27.94;41.04;98991.28;5033253;27;123979;-76
2022/09/05 10:56:47;;;;;;;4.33;2.23;;;27.40;71.80;;;28.04;40.11;98981.81;5019470;28;114335;-75
2022/09/05 10:59:47;;;;;;;3.43;2.00;;;27.50;71.20;;;28.14;40.33;98983.72;5015469;28;113864;-76
2022/09/05 11:02:21;;;;;;;2.40;1.97;;;27.60;70.60;;;28.30;39.69;98990.81;5011505;28;123953;-76
2022/09/05 11:05:22;;;;;;;4.00;2.40;;;27.60;70.20;;;28.42;39.76;98993.88;5013488;28;122558;-76
2022/09/05 11:08:32;;;;;;;3.90;2.60;;;27.80;69.80;;;28.57;38.24;98985.16;5015297;28;114206;-77
2022/09/05 11:11:17;;;;;;;7.07;2.60;;;28.00;67.10;;;28.73;37.98;98982.47;5016960;28;113579;-75
2022/09/05 11:13:46;;;;;;;4.60;2.37;;;28.10;66.90;;;28.88;37.38;98977.31;5014805;28;124090;-75
2022/09/05 11:16:37;;;;;;;7.53;2.57;;;28.20;66.10;;;29.00;37.12;98971.03;5010490;28;123945;-76
2022/09/05 11:19:43;;;;;;;2.80;1.70;;;28.40;64.60;;;29.13;36.70;98974.09;5027234;27;114525;-78
2022/09/05 11:22:12;;;;;;;2.47;1.80;;;28.50;63.80;;;29.26;35.82;98965.72;5015463;27;114920;-79
2022/09/05 11:25:02;;;;;;;4.40;2.10;;;28.60;62.60;;;29.37;35.67;98966.31;5014761;28;124634;-76
2022/09/05 11:27:32;;;;;;;2.27;2.07;;;28.80;61.90;;;29.52;34.52;98967.63;5012700;28;123808;-75
2022/09/05 11:30:12;;;;;;;2.27;2.07;;;28.80;60.60;;;29.65;34.86;98958.47;5017399;28;114080;-77
2022/09/05 11:33:09;;;;;;;3.03;2.10;;;29.10;60.40;;;29.79;34.60;98963.06;5015581;27;113512;-75
2022/09/05 11:35:45;;;;;;;4.03;2.40;;;29.10;59.40;;;29.93;34.07;98955.03;5034150;27;123344;-82
2022/09/05 11:38:49;;;;;;;2.37;1.70;;;29.30;58.90;;;30.04;33.59;98956.84;5018946;27;124130;-78
2022/09/05 11:41:50;;;;;;;3.17;2.07;;;29.40;58.00;;;30.11;33.94;98950.97;5012982;28;114264;-75
2022/09/05 11:44:39;;;;;;;3.60;2.37;;;29.50;57.70;;;30.14;32.87;98961.47;5013877;28;113743;-74
2022/09/05 11:47:23;;;;;;;2.73;2.13;;;29.60;56.30;;;30.11;33.02;98953.81;5015453;27;124182;-75
2022/09/05 11:50:00;;;;;;;7.90;2.20;;;28.60;55.70;;;30.14;33.07;98956.59;5020085;28;124136;-75